• Join FlightAware (Why Join?)
  • Login
  • US Flag 
03:47PM EDT


 

Airport Tracker/Info


-or-


 

Live Flight TrackerFlight Track Log ✈ UAL403 ✈ 24-Apr-2013 ✈ KFLL - KIAD

Flight Track Log - Related Links

Times and Time Zones

All times are in EDT time to prevent confusion due to time zone crossing. See the UAL403 flight status page for this flight to view local times or setup timezone preferences in your user account.

Time Position Orientation Groundspeed Altitude Reporting Facility
EDT Latitude Longitude Course Direction KTS MPH feet Rate Location/Type
12:27PM 26.0728 -80.1411 85° East 164 189 1,200  Level Miami Center
12:28PM 26.0756 -80.1067 85° East 185 213 2,200 1,920 Climbing Miami Center
12:29PM 26.0833 -80.0350 83° East 268 308 4,400 2,580 Climbing Miami Center
12:30PM 26.1119 -79.9781 61° Northeast 273 314 7,100 3,060 Climbing Miami Center
12:31PM 26.1489 -79.9003 62° Northeast 312 359 10,100 2,160 Climbing Miami Center
12:32PM 26.1925 -79.8089 62° Northeast 306 352 11,500 1,380 Climbing Miami Center
12:33PM 26.2406 -79.7036 63° Northeast 345 397 13,000 1,920 Climbing Miami Center
12:34PM 26.3075 -79.5892 57° Northeast 383 441 15,400 2,160 Climbing Miami Center
12:35PM 26.3700 -79.4933 54° Northeast 420 483 17,400 1,800 Climbing Miami Center
12:36PM 26.4472 -79.3744 54° Northeast 426 490 19,000 1,560 Climbing Miami Center
12:37PM 26.5200 -79.2644 54° Northeast 432 497 20,600 1,500 Climbing Miami Center
12:38PM 26.5950 -79.1614 51° Northeast 450 518 22,100 1,500 Climbing Miami Center
12:39PM 26.7086 -79.1056 24° Northeast 444 511 23,600 1,320 Climbing Miami Center
12:40PM 26.8303 -79.0775 12° North 432 497 24,800 1,200 Climbing Miami Center
12:41PM 26.9581 -79.0519 10° North 443 510 26,000 1,200 Climbing Miami Center
12:42PM 27.0817 -79.0239 11° North 457 526 27,300 1,500 Climbing Miami Center
12:43PM 27.2178 -78.9914 12° North 452 520 29,000 840 Climbing Miami Center
12:44PM 27.3414 -78.9658 10° North 447 514 29,000  Level Miami Center
12:45PM 27.4650 -78.9422 10° North 447 514 29,000  Level Miami Center
12:46PM 27.5781 -78.9256 North 447 514 29,000 360 Level Miami Center
12:47PM 27.7139 -78.9092 North 447 514 29,800 1,020 Climbing Miami Center
12:48PM 27.8375 -78.8903 North 447 514 31,100 1,320 Climbing Miami Center
12:49PM 27.9483 -78.8733 North 442 509 32,500 1,500 Climbing Miami Center
12:50PM 28.0611 -78.8589 North 434 499 34,100 1,200 Climbing Miami Center
12:51PM 28.1783 -78.8422 North 428 493 34,900 360 Climbing Miami Center
12:52PM 28.2956 -78.8278 North 422 486 34,900  Level Miami Center
12:53PM 28.4106 -78.8108 North 416 479 34,900  Level Miami Center
12:54PM 28.5297 -78.7942 North 416 479 34,900  Level Miami Center
12:55PM 28.6447 -78.7772 North 423 487 34,900  Level Miami Center
12:56PM 28.7619 -78.7603 North 423 487 34,900  Level Miami Center
12:57PM 28.8808 -78.7456 North 429 494 34,900  Level Miami Center
12:58PM 28.9961 -78.7239 North 422 486 34,900  Level Miami Center
12:59PM 29.1214 -78.7094 North 427 491 34,900  Level Miami Center
01:00PM 29.2425 -78.6922 North 427 491 34,900  Level Miami Center
01:01PM 29.3575 -78.6728 North 422 486 34,900  Level Miami Center
01:02PM 29.4828 -78.6606 North 434 499 34,900  Level Miami Center
01:03PM 29.6000 -78.6411 North 434 499 35,000  Climbing Miami Center
01:04PM 29.7189 -78.6264 North 429 494 34,900 -60 Descending Miami Center
01:05PM 29.8361 -78.6067 North 424 488 34,900  Level Miami Center
01:06PM 29.9808 -78.5839 North 449 517 34,900  Level Jacksonville Center
01:07PM 30.1036 -78.5711 North 444 511 34,900  Level Jacksonville Center
01:08PM 30.2381 -78.5411 11° North 441 507 34,900  Level Jacksonville Center
01:09PM 30.3400 -78.5317 North 428 493 35,000  Climbing Jacksonville Center
01:10PM 30.4606 -78.5164 North 434 499 35,000  Level Jacksonville Center
01:11PM 30.5811 -78.4964 North 429 494 35,000 -60 Level Jacksonville Center
01:12PM 30.7056 -78.4764 North 435 501 34,900 -60 Descending Jacksonville Center
01:13PM 30.8219 -78.4589 North 435 501 34,900  Level Jacksonville Center
01:14PM 30.9381 -78.4389 North 435 501 34,900  Level Jacksonville Center
01:16PM 31.0887 -78.4103 North  Level FlightAware Approximate
01:16PM 31.1956 -78.3975 North 435 501 34,900  Level Jacksonville Center
01:17PM 31.3158 -78.3747 North 452 520 34,900  Level Jacksonville Center
01:18PM 31.4381 -78.3542 North 432 497 34,900  Level Jacksonville Center
01:19PM 31.5567 -78.3386 North 432 497 35,000  Climbing Jacksonville Center
01:20PM 31.6850 -78.3128 10° North 439 505 34,900 -60 Descending Jacksonville Center
01:21PM 31.8014 -78.2972 North 439 505 34,900  Level Jacksonville Center
01:22PM 31.9278 -78.2739 North 444 511 34,900  Level Jacksonville Center
01:23PM 32.0461 -78.2556 North 444 511 34,900  Level Jacksonville Center
01:24PM 32.1706 -78.2322 North 444 511 35,000  Climbing Jacksonville Center
01:25PM 32.2928 -78.2086 North 444 511 34,900 -60 Descending Jacksonville Center
01:26PM 32.4172 -78.1875 North 444 511 34,900  Level Jacksonville Center
01:27PM 32.5400 -78.1739 North 444 511 34,900  Level Jacksonville Center
01:28PM 32.6603 -78.1553 North 444 511 34,900  Level Jacksonville Center
01:29PM 32.7844 -78.1314 North 444 511 34,900  Level Jacksonville Center
01:30PM 32.9072 -78.1175 North 444 511 34,900  Level Jacksonville Center
01:31PM 33.0336 -78.0958 North 444 511 34,900  Level Jacksonville Center
01:32PM 33.1581 -78.0719 North 444 511 34,900  Level Jacksonville Center
01:35PM 33.4503 -78.0256 North 459 528 34,900  Level Washington Center
01:36PM 33.5717 -78.0042 North 454 522 34,900  Level Washington Center
01:37PM 33.6953 -77.9853 North 449 517 34,900  Level Washington Center
01:38PM 33.8186 -77.9664 North 444 511 34,900  Level Washington Center
01:39PM 33.9486 -77.9425 North 450 518 35,000  Climbing Washington Center
01:40PM 34.0742 -77.9186 North 450 518 35,000  Level Washington Center
01:41PM 34.1997 -77.8994 North 450 518 35,000  Level Washington Center
01:42PM 34.3419 -77.8808 North 456 525 35,000 -60 Level Washington Center
01:43PM 34.4672 -77.8767 North 461 531 34,900 -60 Descending Washington Center
01:44PM 34.5944 -77.8728 North 461 531 34,900  Level Washington Center
01:45PM 34.7219 -77.8714 North 461 531 34,900  Level Washington Center
01:46PM 34.8303 -77.8667 North 455 524 35,000  Climbing Washington Center
01:47PM 34.9578 -77.8653 North 455 524 35,000  Level Washington Center
01:48PM 35.0850 -77.8636 North 455 524 35,000  Level Washington Center
01:49PM 35.2250 -77.8600 North 455 524 35,000  Level Washington Center
01:50PM 35.3481 -77.8608 360° North 455 524 35,000  Level Washington Center
01:51PM 35.4733 -77.8569 North 455 524 35,000  Level Washington Center
01:52PM 35.5983 -77.8553 North 450 518 35,000  Level Washington Center
01:53PM 35.7217 -77.8536 North 445 512 35,000  Level Washington Center
01:54PM 35.8489 -77.8522 North 445 512 35,000 -1,380 Level Washington Center
01:56PM 36.0931 -77.8514 360° North 439 505 30,900 -2,280 Descending Washington Center
01:57PM 36.2183 -77.8500 North 439 505 28,200 -1,980 Descending Washington Center
01:58PM 36.3456 -77.8483 North 444 511 27,000 -600 Descending Washington Center
01:59PM 36.4750 -77.8469 360° North 449 517 27,000  Level Washington Center
02:00PM 36.6064 -77.8456 360° North 462 532 27,000 -240 Level Washington Center
02:01PM 36.7381 -77.8417 North 468 539 26,600 -540 Descending Washington Center
02:02PM 36.8714 -77.8403 360° North 468 539 26,000 -300 Descending Washington Center
02:03PM 37.0031 -77.8364 North 468 539 26,000 -600 Level Washington Center
02:04PM 37.1364 -77.8350 360° North 473 544 24,800 -1,200 Descending Washington Center
02:05PM 37.2639 -77.8336 360° North 467 537 23,700 -1,140 Descending Washington Center
02:06PM 37.3889 -77.8319 North 461 531 22,600 -900 Descending Washington Center
02:07PM 37.5164 -77.8253 North 456 525 22,000 -1,200 Descending Washington Center
02:08PM 37.6342 -77.7658 22° Northeast 451 519 20,200 -2,160 Descending Washington Center
02:09PM 37.7500 -77.7008 24° Northeast 446 513 17,700 -2,460 Descending Washington Center
02:10PM 37.8597 -77.6356 25° Northeast 446 513 15,300 -2,400 Descending Washington Center
02:11PM 37.9692 -77.5725 24° Northeast 434 499 12,900 -2,160 Descending Washington Center
02:12PM 38.0619 -77.5197 24° Northeast 413 475 11,000 -1,500 Descending Washington Center
02:13PM 38.1567 -77.4639 25° Northeast 392 451 10,000 -780 Descending Washington Center
02:14PM 38.2386 -77.4158 25° Northeast 351 404 9,500 -900 Descending Washington Center
02:15PM 38.3186 -77.3675 25° Northeast 327 376 8,300 -1,140 Descending Washington Center
02:16PM 38.4022 -77.3589 North 294 338 7,300 -1,020 Descending Washington Center
02:17PM 38.4856 -77.3636 357° North 294 338 6,300 -1,020 Descending Washington Center
02:18PM 38.5708 -77.3681 358° North 294 338 5,300 -960 Descending Washington Center
02:18PM 38.6333 -77.3667 North 305 351 4,800 -720 Descending Potomac TRACON
02:19PM 38.7167 -77.3667 360° North 295 339 4,200 -420 Descending Potomac TRACON
02:20PM 38.8000 -77.3500 North 288 331 4,000 -120 Descending Potomac TRACON
02:21PM 38.8833 -77.3500 360° North 292 336 4,000  Level Potomac TRACON
02:22PM 38.9667 -77.3500 360° North 291 335 4,000 -780 Level Potomac TRACON
02:23PM 39.0500 -77.3500 360° North 277 319 2,400 -960 Descending Potomac TRACON
02:24PM 39.0667 -77.4167 288° West 216 249 2,000 -420 Descending Potomac TRACON